Terminal Aerodrome Forecast
Issued by NWS Wilmington, OH

Current Version | Previous Version | Text Only | Print | Product List | Glossary Off
Versions: 1 2 3 4 5 6 7 8 9 10 11 12 13 14 15 16 17 18 19 20 21

000
FTUS41 KILN 031400 AAA
TAFCVG
TAF AMD
KCVG 031456Z 0315/0418 18008KT P6SM SCT090 BKN200
     FM031800 21014KT P6SM SCT070 SCT200
     FM040000 18004KT P6SM SKC
     FM041400 20009KT P6SM SCT060=

USA.gov is the U.S. government's official web portal to all federal, state and local government web resources and services.